sensor_id;sensor_type;location;lat;lon;timestamp;pressure;altitude;pressure_sealevel;temperature;humidity
26859;BME280;14429;48.346;16.338;2022-08-19T00:01:03;98971.44;;;29.32;44.03
26859;BME280;14429;48.346;16.338;2022-08-19T00:03:28;98978.50;;;29.17;44.79
26859;BME280;14429;48.346;16.338;2022-08-19T00:05:55;98973.34;;;29.43;43.64
26859;BME280;14429;48.346;16.338;2022-08-19T00:08:20;98963.44;;;29.19;44.51
26859;BME280;14429;48.346;16.338;2022-08-19T00:10:46;98966.19;;;29.19;44.46
26859;BME280;14429;48.346;16.338;2022-08-19T00:13:11;98967.13;;;29.36;44.07
26859;BME280;14429;48.346;16.338;2022-08-19T00:15:37;98972.00;;;27.44;50.94
26859;BME280;14429;48.346;16.338;2022-08-19T00:18:02;98984.75;;;27.56;49.35
26859;BME280;14429;48.346;16.338;2022-08-19T00:20:28;98978.28;;;28.55;46.14
26859;BME280;14429;48.346;16.338;2022-08-19T00:22:54;98971.28;;;28.82;45.46
26859;BME280;14429;48.346;16.338;2022-08-19T00:25:20;98979.09;;;29.07;44.32
26859;BME280;14429;48.346;16.338;2022-08-19T00:27:45;98978.25;;;29.29;43.75
26859;BME280;14429;48.346;16.338;2022-08-19T00:30:11;98971.44;;;29.32;43.92
26859;BME280;14429;48.346;16.338;2022-08-19T00:32:37;98985.63;;;27.86;49.71
26859;BME280;14429;48.346;16.338;2022-08-19T00:35:04;98979.78;;;28.92;45.11
26859;BME280;14429;48.346;16.338;2022-08-19T00:37:29;98962.13;;;29.22;44.35
26859;BME280;14429;48.346;16.338;2022-08-19T00:39:56;98958.16;;;29.40;43.82
26859;BME280;14429;48.346;16.338;2022-08-19T00:42:22;98960.66;;;29.42;43.68
26859;BME280;14429;48.346;16.338;2022-08-19T00:44:48;98951.03;;;29.17;44.51
26859;BME280;14429;48.346;16.338;2022-08-19T00:47:13;98960.94;;;29.06;44.44
26859;BME280;14429;48.346;16.338;2022-08-19T00:49:43;98955.69;;;29.16;44.41
26859;BME280;14429;48.346;16.338;2022-08-19T00:52:12;98956.72;;;28.81;45.47
26859;BME280;14429;48.346;16.338;2022-08-19T00:54:40;98946.84;;;29.14;44.30
26859;BME280;14429;48.346;16.338;2022-08-19T00:57:09;98958.19;;;27.86;49.16
26859;BME280;14429;48.346;16.338;2022-08-19T00:59:38;98976.47;;;27.74;48.46
26859;BME280;14429;48.346;16.338;2022-08-19T01:02:06;98968.31;;;28.72;45.53
26859;BME280;14429;48.346;16.338;2022-08-19T01:04:32;98970.13;;;29.00;44.42
26859;BME280;14429;48.346;16.338;2022-08-19T01:06:58;98977.31;;;29.13;44.21
26859;BME280;14429;48.346;16.338;2022-08-19T01:09:25;98972.47;;;28.97;44.57
26859;BME280;14429;48.346;16.338;2022-08-19T01:11:50;98966.06;;;29.14;44.07
26859;BME280;14429;48.346;16.338;2022-08-19T01:14:18;98963.09;;;29.27;43.83
26859;BME280;14429;48.346;16.338;2022-08-19T01:16:45;98968.06;;;29.30;44.00
26859;BME280;14429;48.346;16.338;2022-08-19T01:19:18;98973.56;;;29.30;44.09
26859;BME280;14429;48.346;16.338;2022-08-19T01:21:52;98970.34;;;29.33;43.35
26859;BME280;14429;48.346;16.338;2022-08-19T01:24:21;98969.78;;;29.31;43.78
26859;BME280;14429;48.346;16.338;2022-08-19T01:26:47;98972.72;;;28.73;46.16
26859;BME280;14429;48.346;16.338;2022-08-19T01:29:13;98969.41;;;29.27;43.96
26859;BME280;14429;48.346;16.338;2022-08-19T01:31:39;98981.34;;;29.33;43.67
26859;BME280;14429;48.346;16.338;2022-08-19T01:34:05;98990.44;;;29.33;43.95
26859;BME280;14429;48.346;16.338;2022-08-19T01:36:34;98992.09;;;29.23;44.14
26859;BME280;14429;48.346;16.338;2022-08-19T01:39:02;98999.28;;;29.13;44.51
26859;BME280;14429;48.346;16.338;2022-08-19T01:41:29;99005.25;;;29.21;43.77
26859;BME280;14429;48.346;16.338;2022-08-19T01:43:55;99001.91;;;29.19;43.95
26859;BME280;14429;48.346;16.338;2022-08-19T01:46:20;99013.41;;;29.16;43.86
26859;BME280;14429;48.346;16.338;2022-08-19T01:48:46;99020.25;;;27.27;50.71
26859;BME280;14429;48.346;16.338;2022-08-19T01:51:13;99032.06;;;28.16;46.94
26859;BME280;14429;48.346;16.338;2022-08-19T01:53:40;99026.09;;;26.58;53.06
26859;BME280;14429;48.346;16.338;2022-08-19T01:56:06;99021.88;;;27.35;48.79
26859;BME280;14429;48.346;16.338;2022-08-19T01:58:36;99019.59;;;27.32;49.44
26859;BME280;14429;48.346;16.338;2022-08-19T02:01:04;99009.41;;;27.91;47.68
26859;BME280;14429;48.346;16.338;2022-08-19T02:03:30;99016.22;;;25.84;54.57
26859;BME280;14429;48.346;16.338;2022-08-19T02:05:56;99033.44;;;26.34;52.39
26859;BME280;14429;48.346;16.338;2022-08-19T02:08:22;99035.63;;;26.80;50.87
26859;BME280;14429;48.346;16.338;2022-08-19T02:10:47;99044.59;;;26.63;52.14
26859;BME280;14429;48.346;16.338;2022-08-19T02:13:13;99060.66;;;26.83;50.88
26859;BME280;14429;48.346;16.338;2022-08-19T02:15:40;99059.72;;;26.72;51.72
26859;BME280;14429;48.346;16.338;2022-08-19T02:18:06;99046.97;;;26.83;50.42
26859;BME280;14429;48.346;16.338;2022-08-19T02:20:31;99035.66;;;26.43;52.08
26859;BME280;14429;48.346;16.338;2022-08-19T02:22:57;99039.63;;;25.73;54.98
26859;BME280;14429;48.346;16.338;2022-08-19T02:25:22;99040.06;;;25.58;56.01
26859;BME280;14429;48.346;16.338;2022-08-19T02:27:48;99042.06;;;26.68;51.14
26859;BME280;14429;48.346;16.338;2022-08-19T02:30:16;99039.88;;;26.46;52.54
26859;BME280;14429;48.346;16.338;2022-08-19T02:32:43;99043.53;;;24.89;59.58
26859;BME280;14429;48.346;16.338;2022-08-19T02:35:09;99045.59;;;25.19;56.95
26859;BME280;14429;48.346;16.338;2022-08-19T02:37:35;99054.38;;;25.47;56.70
26859;BME280;14429;48.346;16.338;2022-08-19T02:40:00;99052.94;;;26.07;53.21
26859;BME280;14429;48.346;16.338;2022-08-19T02:42:26;99057.22;;;26.33;52.32
26859;BME280;14429;48.346;16.338;2022-08-19T02:44:51;99038.38;;;26.13;55.12
26859;BME280;14429;48.346;16.338;2022-08-19T02:47:17;99039.91;;;27.18;49.95
26859;BME280;14429;48.346;16.338;2022-08-19T02:49:44;99041.28;;;26.54;52.54
26859;BME280;14429;48.346;16.338;2022-08-19T02:52:09;99045.44;;;26.94;50.44
26859;BME280;14429;48.346;16.338;2022-08-19T02:54:35;99032.63;;;26.88;51.40
26859;BME280;14429;48.346;16.338;2022-08-19T02:57:00;99038.28;;;25.89;54.57
26859;BME280;14429;48.346;16.338;2022-08-19T02:59:25;99026.28;;;25.08;56.72
26859;BME280;14429;48.346;16.338;2022-08-19T03:01:54;99018.09;;;25.83;53.89
26859;BME280;14429;48.346;16.338;2022-08-19T03:04:19;99021.34;;;25.68;54.57
26859;BME280;14429;48.346;16.338;2022-08-19T03:06:47;99014.63;;;25.57;54.73
26859;BME280;14429;48.346;16.338;2022-08-19T03:09:13;99016.63;;;26.30;52.68
26859;BME280;14429;48.346;16.338;2022-08-19T03:11:40;99019.59;;;25.11;56.96
26859;BME280;14429;48.346;16.338;2022-08-19T03:14:07;99013.25;;;25.16;56.54
26859;BME280;14429;48.346;16.338;2022-08-19T03:16:39;99018.75;;;25.04;57.01
26859;BME280;14429;48.346;16.338;2022-08-19T03:19:05;99020.72;;;24.12;60.56
26859;BME280;14429;48.346;16.338;2022-08-19T03:21:32;99010.78;;;24.89;57.07
26859;BME280;14429;48.346;16.338;2022-08-19T03:24:01;99006.50;;;25.88;53.71
26859;BME280;14429;48.346;16.338;2022-08-19T03:26:28;99019.63;;;26.23;52.22
26859;BME280;14429;48.346;16.338;2022-08-19T03:28:53;99016.50;;;26.74;51.06
26859;BME280;14429;48.346;16.338;2022-08-19T03:31:21;99022.78;;;27.29;49.32
26859;BME280;14429;48.346;16.338;2022-08-19T03:33:47;99029.88;;;27.12;49.65
26859;BME280;14429;48.346;16.338;2022-08-19T03:36:14;99041.06;;;26.86;49.99
26859;BME280;14429;48.346;16.338;2022-08-19T03:38:42;99046.41;;;27.23;49.19
26859;BME280;14429;48.346;16.338;2022-08-19T03:41:12;99049.47;;;27.75;47.99
26859;BME280;14429;48.346;16.338;2022-08-19T03:43:39;99053.41;;;27.96;47.25
26859;BME280;14429;48.346;16.338;2022-08-19T03:46:07;99053.38;;;27.43;48.75
26859;BME280;14429;48.346;16.338;2022-08-19T03:48:34;99047.94;;;27.61;48.23
26859;BME280;14429;48.346;16.338;2022-08-19T03:51:01;99058.31;;;28.12;46.97
26859;BME280;14429;48.346;16.338;2022-08-19T03:53:27;99054.78;;;28.23;46.24
26859;BME280;14429;48.346;16.338;2022-08-19T03:55:53;99056.00;;;26.23;52.75
26859;BME280;14429;48.346;16.338;2022-08-19T03:58:20;99060.44;;;26.18;52.66
26859;BME280;14429;48.346;16.338;2022-08-19T04:00:45;99056.59;;;26.92;50.08
26859;BME280;14429;48.346;16.338;2022-08-19T04:03:11;99063.66;;;26.45;51.92
26859;BME280;14429;48.346;16.338;2022-08-19T04:05:36;99068.22;;;26.88;50.16
26859;BME280;14429;48.346;16.338;2022-08-19T04:08:02;99074.50;;;26.58;51.03
26859;BME280;14429;48.346;16.338;2022-08-19T04:10:28;99066.31;;;26.88;50.10
26859;BME280;14429;48.346;16.338;2022-08-19T04:12:53;99072.75;;;27.24;48.98
26859;BME280;14429;48.346;16.338;2022-08-19T04:15:20;99070.38;;;26.49;51.08
26859;BME280;14429;48.346;16.338;2022-08-19T04:17:46;99057.75;;;27.03;49.71
26859;BME280;14429;48.346;16.338;2022-08-19T04:20:11;99056.31;;;27.66;47.83
26859;BME280;14429;48.346;16.338;2022-08-19T04:22:37;99065.91;;;27.57;48.06
26859;BME280;14429;48.346;16.338;2022-08-19T04:25:03;99075.66;;;27.05;50.06
26859;BME280;14429;48.346;16.338;2022-08-19T04:27:28;99093.16;;;27.52;48.22
26859;BME280;14429;48.346;16.338;2022-08-19T04:29:54;99087.94;;;27.86;47.18
26859;BME280;14429;48.346;16.338;2022-08-19T04:32:20;99097.63;;;28.06;46.53
26859;BME280;14429;48.346;16.338;2022-08-19T04:34:46;99095.00;;;28.29;45.86
26859;BME280;14429;48.346;16.338;2022-08-19T04:37:12;99096.16;;;28.21;46.14
26859;BME280;14429;48.346;16.338;2022-08-19T04:39:37;99093.97;;;28.41;45.75
26859;BME280;14429;48.346;16.338;2022-08-19T04:42:03;99098.63;;;28.58;45.17
26859;BME280;14429;48.346;16.338;2022-08-19T04:44:30;99094.63;;;28.72;44.75
26859;BME280;14429;48.346;16.338;2022-08-19T04:46:56;99099.03;;;28.73;44.85
26859;BME280;14429;48.346;16.338;2022-08-19T04:49:23;99109.66;;;28.70;45.07
26859;BME280;14429;48.346;16.338;2022-08-19T04:51:51;99108.81;;;27.87;47.83
26859;BME280;14429;48.346;16.338;2022-08-19T04:54:17;99118.09;;;28.57;45.04
26859;BME280;14429;48.346;16.338;2022-08-19T04:56:43;99127.22;;;27.38;50.53
26859;BME280;14429;48.346;16.338;2022-08-19T04:59:09;99123.06;;;28.31;45.73
26859;BME280;14429;48.346;16.338;2022-08-19T05:01:34;99116.31;;;28.62;45.28
26859;BME280;14429;48.346;16.338;2022-08-19T05:04:01;99113.41;;;28.75;44.80
26859;BME280;14429;48.346;16.338;2022-08-19T05:06:28;99112.06;;;28.48;45.86
26859;BME280;14429;48.346;16.338;2022-08-19T05:08:53;99116.75;;;27.53;50.39
26859;BME280;14429;48.346;16.338;2022-08-19T05:11:24;99117.13;;;27.98;46.99
26859;BME280;14429;48.346;16.338;2022-08-19T05:13:49;99115.84;;;27.59;48.59
26859;BME280;14429;48.346;16.338;2022-08-19T05:16:17;99109.34;;;28.13;46.48
26859;BME280;14429;48.346;16.338;2022-08-19T05:18:43;99119.16;;;27.67;49.06
26859;BME280;14429;48.346;16.338;2022-08-19T05:21:11;99125.25;;;28.40;46.03
26859;BME280;14429;48.346;16.338;2022-08-19T05:23:39;99134.94;;;28.60;45.10
26859;BME280;14429;48.346;16.338;2022-08-19T05:26:04;99144.03;;;28.25;46.80
26859;BME280;14429;48.346;16.338;2022-08-19T05:28:30;99140.53;;;28.54;45.42
26859;BME280;14429;48.346;16.338;2022-08-19T05:30:55;99151.44;;;28.60;45.32
26859;BME280;14429;48.346;16.338;2022-08-19T05:33:22;99152.34;;;28.54;45.17
26859;BME280;14429;48.346;16.338;2022-08-19T05:35:48;99161.47;;;28.66;45.00
26859;BME280;14429;48.346;16.338;2022-08-19T05:38:14;99167.22;;;28.47;45.70
26859;BME280;14429;48.346;16.338;2022-08-19T05:40:41;99174.75;;;28.51;46.54
26859;BME280;14429;48.346;16.338;2022-08-19T05:43:07;99165.22;;;28.36;46.65
26859;BME280;14429;48.346;16.338;2022-08-19T05:45:38;99180.09;;;27.93;48.94
26859;BME280;14429;48.346;16.338;2022-08-19T05:48:04;99202.03;;;28.29;45.93
26859;BME280;14429;48.346;16.338;2022-08-19T05:50:30;99207.84;;;28.21;46.73
26859;BME280;14429;48.346;16.338;2022-08-19T05:52:55;99211.53;;;27.67;50.38
26859;BME280;14429;48.346;16.338;2022-08-19T05:55:21;99208.81;;;27.85;47.44
26859;BME280;14429;48.346;16.338;2022-08-19T05:57:48;99224.72;;;28.00;46.99
26859;BME280;14429;48.346;16.338;2022-08-19T06:00:14;99218.09;;;27.84;49.04
26859;BME280;14429;48.346;16.338;2022-08-19T06:02:40;99214.44;;;27.72;47.71
26859;BME280;14429;48.346;16.338;2022-08-19T06:05:06;99223.84;;;28.24;46.86
26859;BME280;14429;48.346;16.338;2022-08-19T06:07:32;99224.44;;;28.26;46.27
26859;BME280;14429;48.346;16.338;2022-08-19T06:09:58;99228.41;;;28.12;46.79
26859;BME280;14429;48.346;16.338;2022-08-19T06:12:23;99212.59;;;27.90;49.05
26859;BME280;14429;48.346;16.338;2022-08-19T06:14:50;99210.63;;;27.97;47.22
26859;BME280;14429;48.346;16.338;2022-08-19T06:17:15;99205.53;;;28.18;46.32
26859;BME280;14429;48.346;16.338;2022-08-19T06:19:41;99213.19;;;28.16;46.67
26859;BME280;14429;48.346;16.338;2022-08-19T06:22:07;99205.09;;;28.21;46.76
26859;BME280;14429;48.346;16.338;2022-08-19T06:24:32;99218.50;;;28.29;46.55
26859;BME280;14429;48.346;16.338;2022-08-19T06:26:58;99227.81;;;28.28;47.90
26859;BME280;14429;48.346;16.338;2022-08-19T06:29:25;99215.63;;;28.24;48.28
26859;BME280;14429;48.346;16.338;2022-08-19T06:31:54;99218.94;;;28.26;47.07
26859;BME280;14429;48.346;16.338;2022-08-19T06:34:20;99209.81;;;28.32;46.30
26859;BME280;14429;48.346;16.338;2022-08-19T06:36:49;99210.13;;;28.24;48.68
26859;BME280;14429;48.346;16.338;2022-08-19T06:39:18;99205.78;;;28.34;46.09
26859;BME280;14429;48.346;16.338;2022-08-19T06:41:46;99212.13;;;28.35;45.99
26859;BME280;14429;48.346;16.338;2022-08-19T06:44:12;99202.34;;;28.39;45.90
26859;BME280;14429;48.346;16.338;2022-08-19T06:46:40;99203.72;;;28.30;47.09
26859;BME280;14429;48.346;16.338;2022-08-19T06:49:08;99204.97;;;28.51;45.75
26859;BME280;14429;48.346;16.338;2022-08-19T06:51:33;99205.59;;;28.53;45.37
26859;BME280;14429;48.346;16.338;2022-08-19T06:53:59;99218.38;;;28.59;45.46
26859;BME280;14429;48.346;16.338;2022-08-19T06:56:29;99242.31;;;28.52;45.57
26859;BME280;14429;48.346;16.338;2022-08-19T06:58:54;99232.69;;;28.08;48.68
26859;BME280;14429;48.346;16.338;2022-08-19T07:01:20;99228.25;;;28.25;48.65
26859;BME280;14429;48.346;16.338;2022-08-19T07:03:46;99222.31;;;28.28;46.81
26859;BME280;14429;48.346;16.338;2022-08-19T07:06:14;99202.19;;;28.34;46.19
26859;BME280;14429;48.346;16.338;2022-08-19T07:08:41;99202.66;;;28.48;45.77
26859;BME280;14429;48.346;16.338;2022-08-19T07:11:07;99204.72;;;28.35;46.35
26859;BME280;14429;48.346;16.338;2022-08-19T07:13:34;99194.50;;;27.83;51.32
26859;BME280;14429;48.346;16.338;2022-08-19T07:16:03;99205.25;;;28.08;46.92
26859;BME280;14429;48.346;16.338;2022-08-19T07:18:28;99214.69;;;28.30;46.73
26859;BME280;14429;48.346;16.338;2022-08-19T07:21:02;99208.72;;;27.97;50.27
26859;BME280;14429;48.346;16.338;2022-08-19T07:23:29;99212.78;;;28.13;47.16
26859;BME280;14429;48.346;16.338;2022-08-19T07:25:54;99204.47;;;28.01;50.43
26859;BME280;14429;48.346;16.338;2022-08-19T07:28:20;99192.81;;;28.23;47.21
26859;BME280;14429;48.346;16.338;2022-08-19T07:30:45;99195.50;;;28.47;45.76
26859;BME280;14429;48.346;16.338;2022-08-19T07:33:11;99190.47;;;28.44;46.02
26859;BME280;14429;48.346;16.338;2022-08-19T07:35:36;99193.03;;;28.22;47.21
26859;BME280;14429;48.346;16.338;2022-08-19T07:38:02;99184.75;;;28.46;46.27
26859;BME280;14429;48.346;16.338;2022-08-19T07:40:29;99192.66;;;28.36;46.84
26859;BME280;14429;48.346;16.338;2022-08-19T07:42:55;99188.72;;;28.50;46.03
26859;BME280;14429;48.346;16.338;2022-08-19T07:45:20;99177.75;;;28.50;46.06
26859;BME280;14429;48.346;16.338;2022-08-19T07:47:46;99179.03;;;28.47;46.10
26859;BME280;14429;48.346;16.338;2022-08-19T07:50:11;99170.09;;;28.52;46.18
26859;BME280;14429;48.346;16.338;2022-08-19T07:52:37;99167.91;;;28.60;45.58
26859;BME280;14429;48.346;16.338;2022-08-19T07:55:03;99163.00;;;28.62;45.81
26859;BME280;14429;48.346;16.338;2022-08-19T07:57:30;99152.34;;;28.54;46.03
26859;BME280;14429;48.346;16.338;2022-08-19T07:59:56;99148.06;;;28.58;45.73
26859;BME280;14429;48.346;16.338;2022-08-19T08:02:21;99134.56;;;28.57;46.44
26859;BME280;14429;48.346;16.338;2022-08-19T08:04:47;99132.28;;;28.36;48.53
26859;BME280;14429;48.346;16.338;2022-08-19T08:07:12;99147.38;;;28.45;46.44
26859;BME280;14429;48.346;16.338;2022-08-19T08:09:41;99151.19;;;28.62;46.18
26859;BME280;14429;48.346;16.338;2022-08-19T08:12:09;99157.22;;;28.52;48.97
26859;BME280;14429;48.346;16.338;2022-08-19T08:14:38;99170.78;;;28.65;46.40
26859;BME280;14429;48.346;16.338;2022-08-19T08:17:06;99167.56;;;28.68;49.01
26859;BME280;14429;48.346;16.338;2022-08-19T08:19:31;99170.31;;;28.68;45.74
26859;BME280;14429;48.346;16.338;2022-08-19T08:21:59;99176.41;;;28.70;45.78
26859;BME280;14429;48.346;16.338;2022-08-19T08:24:26;99183.34;;;28.72;45.62
26859;BME280;14429;48.346;16.338;2022-08-19T08:26:51;99185.47;;;28.71;46.34
26859;BME280;14429;48.346;16.338;2022-08-19T08:29:17;99181.94;;;28.81;45.53
26859;BME280;14429;48.346;16.338;2022-08-19T08:31:44;99180.19;;;28.87;45.66
26859;BME280;14429;48.346;16.338;2022-08-19T08:34:10;99184.31;;;28.78;45.51
26859;BME280;14429;48.346;16.338;2022-08-19T08:36:37;99199.38;;;28.75;45.82
26859;BME280;14429;48.346;16.338;2022-08-19T08:39:03;99199.75;;;28.79;46.45
26859;BME280;14429;48.346;16.338;2022-08-19T08:41:34;99198.06;;;28.78;46.09
26859;BME280;14429;48.346;16.338;2022-08-19T08:44:00;99198.22;;;28.83;47.03
26859;BME280;14429;48.346;16.338;2022-08-19T08:46:34;99192.84;;;28.88;45.90
26859;BME280;14429;48.346;16.338;2022-08-19T08:49:06;99191.69;;;28.95;46.23
26859;BME280;14429;48.346;16.338;2022-08-19T08:51:39;99209.63;;;28.98;45.35
26859;BME280;14429;48.346;16.338;2022-08-19T08:54:14;99207.19;;;28.90;45.53
26859;BME280;14429;48.346;16.338;2022-08-19T08:56:43;99205.75;;;28.87;46.31
26859;BME280;14429;48.346;16.338;2022-08-19T08:59:14;99196.72;;;28.98;45.22
26859;BME280;14429;48.346;16.338;2022-08-19T09:01:41;99201.56;;;29.02;45.29
26859;BME280;14429;48.346;16.338;2022-08-19T09:04:09;99212.38;;;28.98;45.46
26859;BME280;14429;48.346;16.338;2022-08-19T09:06:42;99220.16;;;29.00;45.91
26859;BME280;14429;48.346;16.338;2022-08-19T09:09:14;99217.63;;;28.99;46.54
26859;BME280;14429;48.346;16.338;2022-08-19T09:11:50;99212.06;;;29.05;45.01
26859;BME280;14429;48.346;16.338;2022-08-19T09:14:32;99200.31;;;28.98;45.31
26859;BME280;14429;48.346;16.338;2022-08-19T09:16:59;99199.38;;;29.04;45.45
26859;BME280;14429;48.346;16.338;2022-08-19T09:19:26;99203.69;;;29.00;45.02
26859;BME280;14429;48.346;16.338;2022-08-19T09:21:52;99199.38;;;29.04;45.67
26859;BME280;14429;48.346;16.338;2022-08-19T09:24:17;99188.56;;;29.09;45.94
26859;BME280;14429;48.346;16.338;2022-08-19T09:26:42;99201.09;;;29.05;46.65
26859;BME280;14429;48.346;16.338;2022-08-19T09:29:08;99189.13;;;29.11;46.91
26859;BME280;14429;48.346;16.338;2022-08-19T09:31:33;99178.72;;;29.02;45.66
26859;BME280;14429;48.346;16.338;2022-08-19T09:33:59;99176.84;;;29.14;45.39
26859;BME280;14429;48.346;16.338;2022-08-19T09:36:27;99176.94;;;29.07;46.57
26859;BME280;14429;48.346;16.338;2022-08-19T09:38:53;99155.13;;;28.95;45.88
26859;BME280;14429;48.346;16.338;2022-08-19T09:41:20;99143.97;;;29.07;45.21
26859;BME280;14429;48.346;16.338;2022-08-19T09:43:47;99151.47;;;29.00;45.39
26859;BME280;14429;48.346;16.338;2022-08-19T09:46:13;99149.00;;;29.10;45.52
26859;BME280;14429;48.346;16.338;2022-08-19T09:48:39;99147.22;;;29.16;44.98
26859;BME280;14429;48.346;16.338;2022-08-19T09:51:08;99137.38;;;29.08;45.27
26859;BME280;14429;48.346;16.338;2022-08-19T09:53:35;99146.88;;;29.12;45.39
26859;BME280;14429;48.346;16.338;2022-08-19T09:56:01;99149.38;;;29.14;45.20
26859;BME280;14429;48.346;16.338;2022-08-19T09:58:26;99148.06;;;29.16;46.44
26859;BME280;14429;48.346;16.338;2022-08-19T10:00:52;99146.66;;;29.25;45.02
26859;BME280;14429;48.346;16.338;2022-08-19T10:03:17;99153.34;;;29.29;45.36
26859;BME280;14429;48.346;16.338;2022-08-19T10:05:43;99156.81;;;29.36;44.59
26859;BME280;14429;48.346;16.338;2022-08-19T10:08:09;99154.06;;;29.36;44.57
26859;BME280;14429;48.346;16.338;2022-08-19T10:10:36;99145.81;;;29.25;45.01
26859;BME280;14429;48.346;16.338;2022-08-19T10:13:01;99148.31;;;29.26;44.74
26859;BME280;14429;48.346;16.338;2022-08-19T10:15:27;99139.00;;;29.27;44.51
26859;BME280;14429;48.346;16.338;2022-08-19T10:17:52;99133.97;;;29.24;44.87
26859;BME280;14429;48.346;16.338;2022-08-19T10:20:18;99140.22;;;29.31;45.17
26859;BME280;14429;48.346;16.338;2022-08-19T10:22:43;99146.56;;;29.43;45.95
26859;BME280;14429;48.346;16.338;2022-08-19T10:25:09;99138.31;;;29.43;44.13
26859;BME280;14429;48.346;16.338;2022-08-19T10:27:36;99136.88;;;29.40;45.12
26859;BME280;14429;48.346;16.338;2022-08-19T10:30:01;99140.44;;;29.41;44.28
26859;BME280;14429;48.346;16.338;2022-08-19T10:32:27;99134.59;;;29.49;44.44
26859;BME280;14429;48.346;16.338;2022-08-19T10:34:53;99132.69;;;29.49;44.14
26859;BME280;14429;48.346;16.338;2022-08-19T10:37:18;99138.19;;;29.49;44.53
26859;BME280;14429;48.346;16.338;2022-08-19T10:39:45;99135.22;;;29.51;44.25
26859;BME280;14429;48.346;16.338;2022-08-19T10:42:11;99147.03;;;29.51;44.48
26859;BME280;14429;48.346;16.338;2022-08-19T10:44:38;99159.34;;;29.49;44.53
26859;BME280;14429;48.346;16.338;2022-08-19T10:47:03;99177.53;;;29.50;44.08
26859;BME280;14429;48.346;16.338;2022-08-19T10:49:29;99175.25;;;29.47;44.42
26859;BME280;14429;48.346;16.338;2022-08-19T10:51:55;99180.50;;;29.48;44.12
26859;BME280;14429;48.346;16.338;2022-08-19T10:54:21;99181.22;;;29.44;44.44
26859;BME280;14429;48.346;16.338;2022-08-19T10:56:46;99185.06;;;29.43;44.50
26859;BME280;14429;48.346;16.338;2022-08-19T10:59:12;99186.94;;;29.31;45.88
26859;BME280;14429;48.346;16.338;2022-08-19T11:01:40;99153.09;;;29.42;44.27
26859;BME280;14429;48.346;16.338;2022-08-19T11:04:06;99138.31;;;29.43;44.29
26859;BME280;14429;48.346;16.338;2022-08-19T11:06:32;99145.22;;;28.94;53.09
26859;BME280;14429;48.346;16.338;2022-08-19T11:08:58;99135.28;;;28.93;53.04
26859;BME280;14429;48.346;16.338;2022-08-19T11:11:23;99135.16;;;28.59;55.96
26859;BME280;14429;48.346;16.338;2022-08-19T11:13:49;99158.56;;;28.26;57.01
26859;BME280;14429;48.346;16.338;2022-08-19T11:16:16;99169.41;;;28.39;55.17
26859;BME280;14429;48.346;16.338;2022-08-19T11:18:47;99184.03;;;28.15;55.45
26859;BME280;14429;48.346;16.338;2022-08-19T11:21:15;99172.00;;;28.34;55.45
26859;BME280;14429;48.346;16.338;2022-08-19T11:23:41;99161.91;;;28.63;48.95
26859;BME280;14429;48.346;16.338;2022-08-19T11:26:06;99155.19;;;28.77;47.86
26859;BME280;14429;48.346;16.338;2022-08-19T11:28:32;99157.22;;;28.35;56.74
26859;BME280;14429;48.346;16.338;2022-08-19T11:30:57;99145.03;;;28.31;53.75
26859;BME280;14429;48.346;16.338;2022-08-19T11:33:23;99122.47;;;28.46;50.23
26859;BME280;14429;48.346;16.338;2022-08-19T11:35:49;99127.97;;;27.93;54.61
26859;BME280;14429;48.346;16.338;2022-08-19T11:38:15;99125.81;;;28.13;52.39
26859;BME280;14429;48.346;16.338;2022-08-19T11:40:41;99120.75;;;27.75;55.55
26859;BME280;14429;48.346;16.338;2022-08-19T11:43:06;99118.19;;;28.15;49.81
26859;BME280;14429;48.346;16.338;2022-08-19T11:45:32;99113.19;;;28.12;51.68
26859;BME280;14429;48.346;16.338;2022-08-19T11:47:57;99114.13;;;28.35;54.41
26859;BME280;14429;48.346;16.338;2022-08-19T11:50:23;99108.28;;;28.49;49.75
26859;BME280;14429;48.346;16.338;2022-08-19T11:52:51;99102.72;;;28.67;49.10
26859;BME280;14429;48.346;16.338;2022-08-19T11:55:18;99095.38;;;28.79;51.29
26859;BME280;14429;48.346;16.338;2022-08-19T11:57:43;99103.28;;;28.87;50.76
26859;BME280;14429;48.346;16.338;2022-08-19T12:00:10;99108.56;;;28.99;48.11
26859;BME280;14429;48.346;16.338;2022-08-19T12:02:35;99089.97;;;29.01;46.78
26859;BME280;14429;48.346;16.338;2022-08-19T12:05:01;99086.88;;;29.09;46.62
26859;BME280;14429;48.346;16.338;2022-08-19T12:07:26;99082.81;;;29.23;46.35
26859;BME280;14429;48.346;16.338;2022-08-19T12:09:53;99088.09;;;29.36;49.22
26859;BME280;14429;48.346;16.338;2022-08-19T12:12:19;99086.53;;;29.51;45.84
26859;BME280;14429;48.346;16.338;2022-08-19T12:14:44;99084.50;;;29.47;45.15
26859;BME280;14429;48.346;16.338;2022-08-19T12:17:09;99088.00;;;29.53;45.25
26859;BME280;14429;48.346;16.338;2022-08-19T12:19:36;99076.66;;;29.61;44.66
26859;BME280;14429;48.346;16.338;2022-08-19T12:22:02;99073.66;;;29.63;44.80
26859;BME280;14429;48.346;16.338;2022-08-19T12:24:30;99067.56;;;29.72;43.99
26859;BME280;14429;48.346;16.338;2022-08-19T12:26:57;99080.59;;;29.65;44.46
26859;BME280;14429;48.346;16.338;2022-08-19T12:29:23;99083.81;;;29.62;43.01
26859;BME280;14429;48.346;16.338;2022-08-19T12:31:50;99088.50;;;29.62;43.87
26859;BME280;14429;48.346;16.338;2022-08-19T12:34:15;99081.88;;;29.52;44.29
26859;BME280;14429;48.346;16.338;2022-08-19T12:36:40;99079.97;;;29.63;42.99
26859;BME280;14429;48.346;16.338;2022-08-19T12:39:06;99087.28;;;29.69;43.61
26859;BME280;14429;48.346;16.338;2022-08-19T12:41:31;99096.09;;;29.94;44.02
26859;BME280;14429;48.346;16.338;2022-08-19T12:43:58;99090.25;;;30.02;43.63
26859;BME280;14429;48.346;16.338;2022-08-19T12:46:23;99095.97;;;30.11;43.22